Time,TemperatureF,DewpointF,PressureIn,WindDirection,WindDirectionDegrees,WindSpeedMPH,WindSpeedGustMPH,Humidity,HourlyPrecipIn,Conditions,Clouds,dailyrainin,SoftwareType,DateUTC
2013-01-09 00:00:00,29.0,18.0,-100.00,SW,226,16.0,35.0,64,-99.99,,,-99.99,,2013-01-09 08:00:00,
2013-01-09 00:53:00,29.0,18.0,-100.00,SW,226,16.0,35.0,64,-99.99,,,-99.99,,2013-01-09 08:53:00,
2013-01-09 01:00:00,29.0,13.0,-100.00,SW,236,15.0,35.0,50,-99.99,,,-99.99,,2013-01-09 09:00:00,
2013-01-09 01:53:00,29.0,13.0,-100.00,SW,236,15.0,35.0,50,-99.99,,,-99.99,,2013-01-09 09:53:00,
2013-01-09 02:00:00,28.0,10.0,-100.00,SW,232,16.0,35.0,46,-99.99,,,-99.99,,2013-01-09 10:00:00,
2013-01-09 02:52:00,28.0,10.0,-100.00,SW,232,16.0,35.0,46,-99.99,,,-99.99,,2013-01-09 10:52:00,
2013-01-09 03:00:00,30.0,10.0,-100.00,SW,235,20.0,47.0,42,-99.99,,,-99.99,,2013-01-09 11:00:00,
2013-01-09 04:00:00,28.0,9.0,-100.00,WSW,238,22.0,36.0,44,-99.99,,,-99.99,,2013-01-09 12:00:00,
2013-01-09 05:00:00,28.0,9.0,-100.00,SSW,201,24.0,39.0,45,-99.99,,,-99.99,,2013-01-09 13:00:00,
2013-01-09 06:00:00,28.0,13.0,-100.00,SW,236,25.0,45.0,52,-99.99,,,-99.99,,2013-01-09 14:00:00,
2013-01-09 07:00:00,27.0,17.0,-100.00,SW,227,24.0,43.0,66,-99.99,,,-99.99,,2013-01-09 15:00:00,
2013-01-09 09:00:00,22.0,20.0,-100.00,SSW,210,21.0,40.0,92,-99.99,,,-99.99,,2013-01-09 17:00:00,
2013-01-09 10:00:00,20.0,18.0,-100.00,WSW,244,20.0,36.0,90,-99.99,,,-99.99,,2013-01-09 18:00:00,
2013-01-09 10:53:00,20.0,18.0,-100.00,WSW,244,20.0,36.0,90,-99.99,,,-99.99,,2013-01-09 18:53:00,
2013-01-09 11:00:00,19.0,17.0,-100.00,SW,232,20.0,35.0,90,-99.99,,,-99.99,,2013-01-09 19:00:00,
2013-01-09 12:00:00,19.0,17.0,-100.00,WSW,250,21.0,39.0,90,-99.99,,,-99.99,,2013-01-09 20:00:00,
2013-01-09 12:53:00,19.0,17.0,-100.00,WSW,250,21.0,39.0,90,-99.99,,,-99.99,,2013-01-09 20:53:00,
2013-01-09 13:00:00,18.0,16.0,-100.00,SW,223,20.0,35.0,90,-99.99,,,-99.99,,2013-01-09 21:00:00,
2013-01-09 14:00:00,16.0,13.0,-100.00,WSW,241,21.0,35.0,89,-99.99,,,-99.99,,2013-01-09 22:00:00,
2013-01-09 15:00:00,15.0,12.0,-100.00,West,262,18.0,36.0,89,-99.99,,,-99.99,,2013-01-09 23:00:00,
2013-01-09 16:00:00,15.0,12.0,-100.00,West,267,21.0,35.0,89,-99.99,,,-99.99,,2013-01-10 00:00:00,
2013-01-09 17:00:00,13.0,10.0,-100.00,WSW,252,22.0,33.0,89,-99.99,,,-99.99,,2013-01-10 01:00:00,
2013-01-09 18:00:00,13.0,10.0,-100.00,WSW,246,21.0,31.0,89,-99.99,,,-99.99,,2013-01-10 02:00:00,
2013-01-09 19:00:00,13.0,10.0,-100.00,WSW,244,16.0,27.0,89,-99.99,,,-99.99,,2013-01-10 03:00:00,
2013-01-09 20:00:00,13.0,10.0,-100.00,WSW,245,17.0,30.0,89,-99.99,,,-99.99,,2013-01-10 04:00:00,
2013-01-09 21:00:00,13.0,10.0,-100.00,West,262,15.0,24.0,88,-99.99,,,-99.99,,2013-01-10 05:00:00,
2013-01-09 22:00:00,12.0,9.0,-100.00,West,266,15.0,24.0,88,-99.99,,,-99.99,,2013-01-10 06:00:00,
2013-01-09 23:00:00,13.0,10.0,-100.00,WSW,244,12.0,20.0,88,-99.99,,,-99.99,,2013-01-10 07:00:00,